Time;durP1;ratioP1;P1;durP2;ratioP2;P2;SDS_P1;SDS_P2;PMS_P1;PMS_P2;Temp;Humidity;BMP_temperature;BMP_pressure;BME280_temperature;BME280_humidity;BME280_pressure;Samples;Min_cycle;Max_cycle;Signal;HPM_P1;HPM_P2
2023/02/11 00:00:33;;;;;;;14.67;9.37;;;8.00;99.90;;;;;;5011588;28;20423;-72
2023/02/11 00:02:58;;;;;;;14.80;9.97;;;8.00;99.90;;;;;;5010656;28;20773;-72
2023/02/11 00:05:24;;;;;;;15.97;8.87;;;8.10;99.90;;;;;;5011577;28;20168;-72
2023/02/11 00:07:49;;;;;;;19.37;11.50;;;8.20;99.90;;;;;;5014815;28;20176;-71
2023/02/11 00:10:15;;;;;;;13.80;9.60;;;8.10;99.90;;;;;;5015494;28;20730;-73
2023/02/11 00:12:42;;;;;;;21.13;11.30;;;8.10;99.90;;;;;;5015466;28;20202;-73
2023/02/11 00:15:08;;;;;;;13.83;9.53;;;8.00;99.90;;;;;;5015414;28;20164;-73
2023/02/11 00:17:33;;;;;;;11.50;8.80;;;8.00;99.90;;;;;;5015401;28;20419;-72
2023/02/11 00:19:59;;;;;;;16.27;11.20;;;8.10;99.90;;;;;;5013988;28;20406;-72
2023/02/11 00:22:24;;;;;;;22.20;11.50;;;8.00;99.90;;;;;;5015385;28;20178;-72
2023/02/11 00:24:50;;;;;;;15.07;10.17;;;7.90;99.90;;;;;;5014990;28;20194;-72
2023/02/11 00:27:15;;;;;;;13.63;9.43;;;7.80;99.90;;;;;;5015357;28;20168;-72
2023/02/11 00:29:41;;;;;;;18.23;10.70;;;7.80;99.90;;;;;;5015212;28;20168;-72
2023/02/11 00:32:07;;;;;;;17.77;10.67;;;7.80;99.90;;;;;;5015158;28;20616;-72
2023/02/11 00:34:34;;;;;;;15.70;9.53;;;7.70;99.90;;;;;;5014890;28;20694;-72
2023/02/11 00:37:00;;;;;;;14.37;9.30;;;7.70;99.90;;;;;;5015143;28;20407;-71
2023/02/11 00:39:25;;;;;;;16.30;10.57;;;7.60;99.90;;;;;;5013734;28;20486;-72
2023/02/11 00:41:51;;;;;;;19.90;9.67;;;7.50;99.90;;;;;;5015053;28;20199;-73
2023/02/11 00:44:16;;;;;;;21.20;10.30;;;7.50;99.90;;;;;;5013501;28;20176;-73
2023/02/11 00:46:42;;;;;;;17.43;9.47;;;7.50;99.90;;;;;;4998379;28;20181;-73
2023/02/11 00:49:07;;;;;;;15.80;10.10;;;7.50;99.90;;;;;;5013589;28;20565;-73
2023/02/11 00:51:33;;;;;;;14.67;9.20;;;7.40;99.90;;;;;;5025378;28;20667;-73
2023/02/11 00:53:59;;;;;;;14.30;8.53;;;7.40;99.90;;;;;;5015967;28;20176;-73
2023/02/11 00:56:24;;;;;;;13.87;9.40;;;7.40;99.90;;;;;;5014568;28;20172;-73
2023/02/11 00:58:50;;;;;;;17.23;10.30;;;7.30;99.90;;;;;;5014802;28;20172;-74
2023/02/11 01:01:16;;;;;;;20.67;11.20;;;7.10;99.90;;;;;;5014604;28;20714;-73
2023/02/11 01:03:41;;;;;;;20.90;10.00;;;7.00;99.90;;;;;;5013713;28;20711;-74
2023/02/11 01:06:08;;;;;;;17.77;10.87;;;6.90;99.90;;;;;;5014541;28;20621;-72
2023/02/11 01:08:34;;;;;;;19.20;10.27;;;6.90;99.90;;;;;;5014498;28;20707;-72
2023/02/11 01:11:03;;;;;;;18.87;10.63;;;6.80;99.90;;;;;;5014480;28;20455;-73
2023/02/11 01:13:29;;;;;;;18.07;11.43;;;6.80;99.90;;;;;;5014553;28;20776;-72
2023/02/11 01:15:55;;;;;;;19.93;11.40;;;6.80;99.90;;;;;;5014033;28;20391;-73
2023/02/11 01:18:21;;;;;;;17.10;10.80;;;6.80;99.90;;;;;;4996858;28;20475;-73
2023/02/11 01:20:46;;;;;;;17.30;9.30;;;6.80;99.90;;;;;;4994603;28;20185;-73
2023/02/11 01:23:12;;;;;;;16.37;10.00;;;6.70;99.90;;;;;;4994655;28;20243;-72
2023/02/11 01:25:37;;;;;;;16.87;11.27;;;6.70;99.90;;;;;;4993171;28;20169;-74
2023/02/11 01:28:03;;;;;;;20.67;10.80;;;6.60;99.90;;;;;;4994549;28;20639;-72
2023/02/11 01:30:29;;;;;;;14.23;9.30;;;6.60;99.90;;;;;;4994176;28;20184;-72
2023/02/11 01:32:55;;;;;;;21.73;12.50;;;6.60;99.90;;;;;;5026168;28;20436;-72
2023/02/11 01:35:20;;;;;;;15.70;10.33;;;6.70;99.90;;;;;;4994302;28;20177;-72
2023/02/11 01:37:46;;;;;;;18.40;10.70;;;6.60;99.90;;;;;;4994307;28;20173;-72
2023/02/11 01:40:15;;;;;;;18.83;11.60;;;6.50;99.90;;;;;;4994364;28;20195;-73
2023/02/11 01:42:40;;;;;;;20.83;11.30;;;6.50;99.90;;;;;;4994233;28;20169;-72
2023/02/11 01:45:54;;;;;;;20.60;11.90;;;6.70;99.90;;;;;;5028713;28;20454;-73
2023/02/11 01:48:27;;;;;;;28.00;10.73;;;6.70;99.90;;;;;;4974683;28;20185;-74
2023/02/11 01:51:00;;;;;;;20.77;11.50;;;6.80;99.90;;;;;;4994150;28;20452;-73
2023/02/11 01:59:02;;;;;;;18.00;11.10;;;7.00;99.90;;;;;;4993995;28;20415;-73
2023/02/11 02:01:30;;;;;;;19.00;10.13;;;7.20;99.90;;;;;;4997682;28;20938;-73
2023/02/11 02:03:58;;;;;;;19.53;10.60;;;7.20;99.90;;;;;;5024533;28;20774;-72
2023/02/11 02:06:36;;;;;;;17.33;11.70;;;7.20;99.90;;;;;;5013111;28;20404;-72
2023/02/11 02:09:22;;;;;;;19.23;11.03;;;7.20;99.90;;;;;;5013321;28;20423;-73
2023/02/11 02:11:48;;;;;;;16.70;10.80;;;7.30;99.90;;;;;;5013205;28;20494;-72
2023/02/11 02:14:14;;;;;;;19.30;11.30;;;7.40;99.90;;;;;;5013066;28;20403;-73
2023/02/11 02:16:39;;;;;;;19.50;10.90;;;7.40;99.90;;;;;;5013075;28;21027;-72
2023/02/11 02:19:05;;;;;;;14.63;8.90;;;7.40;99.90;;;;;;4995822;28;20173;-72
2023/02/11 02:22:01;;;;;;;18.60;10.23;;;7.40;99.90;;;;;;4993484;28;20192;-72
2023/02/11 02:24:46;;;;;;;19.53;9.93;;;7.20;99.90;;;;;;4993350;28;20169;-71
2023/02/11 02:27:39;;;;;;;27.10;12.67;;;7.20;99.90;;;;;;4992263;28;20504;-71
2023/02/11 02:30:13;;;;;;;19.23;12.30;;;7.10;99.90;;;;;;4992479;28;20427;-72
2023/02/11 02:33:04;;;;;;;16.97;11.03;;;7.10;99.90;;;;;;4991824;28;20452;-72
2023/02/11 02:35:52;;;;;;;21.50;11.80;;;7.10;99.90;;;;;;5024712;28;20511;-72
2023/02/11 02:38:30;;;;;;;19.40;12.20;;;7.10;99.90;;;;;;4993252;28;20439;-71
2023/02/11 02:41:17;;;;;;;17.70;10.40;;;7.10;99.90;;;;;;4993392;28;20791;-71
2023/02/11 02:43:47;;;;;;;29.47;13.23;;;7.10;99.90;;;;;;4993169;28;20408;-71
2023/02/11 02:46:18;;;;;;;20.90;13.53;;;7.00;99.90;;;;;;4995997;28;20411;-71
2023/02/11 02:48:45;;;;;;;22.30;12.67;;;6.80;99.90;;;;;;5012694;28;20501;-72
2023/02/11 02:51:35;;;;;;;21.27;10.57;;;6.80;99.90;;;;;;5012550;28;20486;-72
2023/02/11 02:54:46;;;;;;;22.30;11.33;;;6.80;99.90;;;;;;5012563;28;20395;-72
2023/02/11 02:57:39;;;;;;;26.50;11.70;;;6.70;99.90;;;;;;5012633;28;20402;-72
2023/02/11 03:00:33;;;;;;;18.97;13.93;;;6.50;99.90;;;;;;5012661;28;20447;-72
2023/02/11 03:03:28;;;;;;;20.53;11.60;;;6.40;99.90;;;;;;5012477;28;20418;-71
2023/02/11 03:06:03;;;;;;;20.73;13.10;;;6.20;99.90;;;;;;5012195;28;20477;-72
2023/02/11 03:08:52;;;;;;;22.60;14.77;;;6.20;99.90;;;;;;5011202;28;20429;-72
2023/02/11 03:11:19;;;;;;;19.67;11.83;;;6.10;99.90;;;;;;5013308;28;20462;-74
2023/02/11 03:13:46;;;;;;;28.80;13.97;;;6.00;99.90;;;;;;5023374;28;20477;-71
2023/02/11 03:16:17;;;;;;;24.73;14.50;;;6.00;99.90;;;;;;5011977;28;20438;-72
2023/02/11 03:19:17;;;;;;;21.73;14.07;;;6.10;99.90;;;;;;4993794;28;20955;-71
2023/02/11 03:21:43;;;;;;;22.47;13.47;;;6.00;99.90;;;;;;4991179;28;20467;-72
2023/02/11 03:24:33;;;;;;;22.33;12.70;;;6.10;99.90;;;;;;4991348;28;20419;-72
2023/02/11 03:27:16;;;;;;;17.63;10.90;;;6.20;99.90;;;;;;4992255;28;20455;-72
2023/02/11 03:30:34;;;;;;;20.37;12.20;;;6.30;99.90;;;;;;4992583;28;20423;-73
2023/02/11 03:33:21;;;;;;;19.17;11.17;;;6.40;99.90;;;;;;4990172;28;20439;-72
2023/02/11 03:36:03;;;;;;;20.57;12.27;;;6.60;99.90;;;;;;4989845;28;20471;-72
2023/02/11 03:38:34;;;;;;;21.17;12.10;;;6.60;99.90;;;;;;4991224;28;20408;-71
2023/02/11 03:41:01;;;;;;;21.57;13.03;;;6.60;99.90;;;;;;4992435;28;20440;-71
2023/02/11 03:43:34;;;;;;;20.10;12.00;;;6.60;99.90;;;;;;4996474;28;20400;-72
2023/02/11 03:46:02;;;;;;;20.77;13.87;;;6.60;99.90;;;;;;4999698;28;20781;-72
2023/02/11 03:48:32;;;;;;;18.50;11.40;;;6.60;99.90;;;;;;4996448;28;20428;-72
2023/02/11 03:51:01;;;;;;;20.20;12.27;;;6.70;99.90;;;;;;4996304;28;20543;-72
2023/02/11 03:53:26;;;;;;;25.70;13.23;;;6.60;99.90;;;;;;4995097;28;20400;-73
2023/02/11 03:55:55;;;;;;;24.73;12.70;;;6.50;99.90;;;;;;4994824;28;20444;-71
2023/02/11 03:58:21;;;;;;;29.80;11.90;;;6.50;99.90;;;;;;4996138;28;20161;-72
2023/02/11 04:00:47;;;;;;;24.17;10.97;;;6.50;99.90;;;;;;4996170;28;20424;-73
2023/02/11 04:03:12;;;;;;;26.80;11.93;;;6.50;99.90;;;;;;4996149;28;20407;-71
2023/02/11 04:05:39;;;;;;;19.00;11.60;;;6.60;99.90;;;;;;4995809;28;20639;-72
2023/02/11 04:08:04;;;;;;;18.43;11.70;;;6.70;99.90;;;;;;4996161;28;20169;-72
2023/02/11 04:10:30;;;;;;;20.93;13.27;;;6.60;99.90;;;;;;4994771;28;20447;-72
2023/02/11 04:12:56;;;;;;;19.97;13.00;;;6.70;99.90;;;;;;4994684;28;20845;-72
2023/02/11 04:15:22;;;;;;;21.13;11.87;;;6.70;99.90;;;;;;4997077;28;20176;-72
2023/02/11 04:17:48;;;;;;;24.63;11.33;;;6.80;99.90;;;;;;5010152;28;20457;-71
2023/02/11 04:20:13;;;;;;;17.33;10.67;;;6.70;99.90;;;;;;5014928;28;20446;-73
2023/02/11 04:22:39;;;;;;;20.93;11.20;;;6.70;99.90;;;;;;5016658;28;20192;-71
2023/02/11 04:25:06;;;;;;;17.03;11.23;;;6.80;99.90;;;;;;5026020;28;20192;-72
2023/02/11 04:27:31;;;;;;;25.10;12.27;;;6.70;99.90;;;;;;5015476;28;20172;-72
2023/02/11 04:29:57;;;;;;;24.90;11.80;;;6.70;99.90;;;;;;5015303;28;20915;-72
2023/02/11 04:32:22;;;;;;;20.60;11.53;;;6.60;99.90;;;;;;5015129;28;20196;-72
2023/02/11 04:34:48;;;;;;;22.30;12.23;;;6.60;99.90;;;;;;5014986;28;20214;-72
2023/02/11 04:37:14;;;;;;;22.40;12.37;;;6.70;99.90;;;;;;5015081;28;20168;-71
2023/02/11 04:39:40;;;;;;;21.20;11.37;;;6.70;99.90;;;;;;5015155;28;20199;-71
2023/02/11 04:42:05;;;;;;;20.60;12.23;;;6.70;99.90;;;;;;5014910;28;20430;-72
2023/02/11 04:44:31;;;;;;;21.33;11.23;;;6.70;99.90;;;;;;5013486;28;20211;-72
2023/02/11 04:46:56;;;;;;;22.13;11.60;;;6.80;99.90;;;;;;4995901;28;20252;-72
2023/02/11 04:49:22;;;;;;;16.70;9.97;;;6.80;99.90;;;;;;4994057;28;20179;-72
2023/02/11 04:51:48;;;;;;;21.00;11.57;;;6.80;99.90;;;;;;4995162;28;20208;-71
2023/02/11 04:54:13;;;;;;;21.60;10.20;;;6.80;99.90;;;;;;4993963;28;20208;-72
2023/02/11 04:56:39;;;;;;;20.87;11.80;;;6.90;99.90;;;;;;4995162;28;20161;-71
2023/02/11 04:59:05;;;;;;;21.67;11.13;;;6.80;99.90;;;;;;4995200;28;20169;-73
2023/02/11 05:01:31;;;;;;;27.80;10.80;;;6.80;99.90;;;;;;4995139;28;20216;-72
2023/02/11 05:03:56;;;;;;;15.73;11.30;;;6.80;99.90;;;;;;4995036;28;20447;-72
2023/02/11 05:06:22;;;;;;;23.10;12.90;;;7.00;99.90;;;;;;4994849;28;20169;-72
2023/02/11 05:08:47;;;;;;;23.17;10.80;;;6.90;99.90;;;;;;4994811;28;20662;-71
2023/02/11 05:11:19;;;;;;;16.33;11.53;;;6.90;99.90;;;;;;4994875;28;20228;-72
2023/02/11 05:13:46;;;;;;;18.70;12.50;;;7.00;99.90;;;;;;4994967;28;20804;-72
2023/02/11 05:16:12;;;;;;;18.90;11.03;;;6.90;99.90;;;;;;4994690;28;20824;-73
2023/02/11 05:18:39;;;;;;;18.87;11.50;;;7.00;99.90;;;;;;4993503;28;20837;-72
2023/02/11 05:21:14;;;;;;;17.97;11.37;;;7.00;99.90;;;;;;4994451;28;20431;-73
2023/02/11 05:23:39;;;;;;;22.63;11.43;;;7.10;99.90;;;;;;4994709;28;20413;-73
2023/02/11 05:26:05;;;;;;;21.20;12.27;;;7.10;99.90;;;;;;4994386;28;20466;-73
2023/02/11 05:28:31;;;;;;;21.30;11.97;;;7.10;99.90;;;;;;4994672;28;20412;-72
2023/02/11 05:30:57;;;;;;;23.33;12.17;;;7.00;99.90;;;;;;4994428;28;20261;-72
2023/02/11 05:33:23;;;;;;;22.10;12.10;;;7.00;99.90;;;;;;4994632;28;20173;-71
2023/02/11 05:35:49;;;;;;;21.73;12.23;;;7.00;99.90;;;;;;5024235;28;20664;-73
2023/02/11 05:38:14;;;;;;;22.90;11.50;;;7.00;99.90;;;;;;5033858;28;20480;-72
2023/02/11 05:40:40;;;;;;;20.63;12.20;;;6.90;99.90;;;;;;5033564;28;20418;-73
2023/02/11 05:43:06;;;;;;;36.50;13.50;;;6.90;99.90;;;;;;5033667;28;20163;-73
2023/02/11 05:45:32;;;;;;;17.07;11.17;;;6.80;99.90;;;;;;5013103;28;20412;-72
2023/02/11 05:47:58;;;;;;;20.87;13.00;;;6.80;99.90;;;;;;4992887;28;20169;-73
2023/02/11 05:50:24;;;;;;;20.10;12.33;;;6.70;99.90;;;;;;4994267;28;20424;-72
2023/02/11 05:52:49;;;;;;;21.80;13.40;;;6.80;99.90;;;;;;4994007;28;20200;-71
2023/02/11 05:55:15;;;;;;;21.73;12.83;;;6.70;99.90;;;;;;4993826;28;20635;-72
2023/02/11 05:57:40;;;;;;;25.13;13.80;;;6.80;99.90;;;;;;4994092;28;20169;-72
2023/02/11 06:00:07;;;;;;;21.53;11.77;;;6.80;99.90;;;;;;4993982;28;20608;-72
2023/02/11 06:02:32;;;;;;;22.10;11.10;;;6.80;99.90;;;;;;4992551;28;20188;-73
2023/02/11 06:04:58;;;;;;;23.63;12.23;;;6.90;99.90;;;;;;4993491;28;20420;-71
2023/02/11 06:07:24;;;;;;;23.93;13.00;;;6.90;99.90;;;;;;4994012;28;20173;-72
2023/02/11 06:09:49;;;;;;;22.27;12.07;;;6.90;99.90;;;;;;4993604;28;20196;-72
2023/02/11 06:12:15;;;;;;;23.57;12.20;;;7.00;99.90;;;;;;4993753;28;20734;-73
2023/02/11 06:14:40;;;;;;;17.97;11.50;;;7.10;99.90;;;;;;4994586;28;20168;-71
2023/02/11 06:17:06;;;;;;;19.50;12.00;;;7.20;99.90;;;;;;4993745;28;20677;-71
2023/02/11 06:19:32;;;;;;;22.17;13.17;;;7.20;99.90;;;;;;4993684;28;20253;-72
2023/02/11 06:21:58;;;;;;;18.50;11.90;;;7.20;99.90;;;;;;4993503;28;20287;-72
2023/02/11 06:24:24;;;;;;;25.17;12.60;;;7.20;99.90;;;;;;4993241;28;20180;-72
2023/02/11 06:26:49;;;;;;;26.57;13.13;;;7.30;99.90;;;;;;4993605;28;20436;-72
2023/02/11 06:29:15;;;;;;;21.73;12.87;;;7.20;99.90;;;;;;4993371;28;20165;-72
2023/02/11 06:31:41;;;;;;;31.37;12.27;;;7.10;99.90;;;;;;4993344;28;20201;-72
2023/02/11 06:34:08;;;;;;;24.47;12.90;;;7.10;99.90;;;;;;4993429;28;20255;-72
2023/02/11 06:36:33;;;;;;;26.03;14.50;;;7.20;99.90;;;;;;4993226;28;20161;-73
2023/02/11 06:38:59;;;;;;;25.33;12.93;;;7.10;99.90;;;;;;4993402;28;20396;-71
2023/02/11 06:41:24;;;;;;;30.20;14.90;;;7.20;99.90;;;;;;4993231;28;20208;-72
2023/02/11 06:43:51;;;;;;;26.63;14.00;;;7.10;99.90;;;;;;4993785;28;20202;-72
2023/02/11 06:46:17;;;;;;;27.63;13.47;;;7.00;99.90;;;;;;5011460;28;20175;-72
2023/02/11 06:48:42;;;;;;;19.60;13.43;;;6.90;99.90;;;;;;5019280;28;20430;-72
2023/02/11 06:51:10;;;;;;;22.27;13.67;;;6.90;99.90;;;;;;5011337;28;20290;-72
2023/02/11 06:53:39;;;;;;;19.00;12.03;;;6.80;99.90;;;;;;5012733;28;20187;-72
2023/02/11 06:56:07;;;;;;;28.03;13.13;;;7.00;99.90;;;;;;5012504;28;20395;-72
2023/02/11 06:58:33;;;;;;;22.70;12.20;;;7.00;99.90;;;;;;5012498;28;20923;-72
2023/02/11 07:00:59;;;;;;;28.20;14.10;;;7.10;99.90;;;;;;5012467;28;20419;-71
2023/02/11 07:03:25;;;;;;;24.97;13.37;;;7.10;99.90;;;;;;5012394;28;20404;-72
2023/02/11 07:05:50;;;;;;;23.40;13.90;;;7.20;99.90;;;;;;5012432;28;20625;-72
2023/02/11 07:08:16;;;;;;;24.67;12.13;;;7.10;99.90;;;;;;5012221;28;20391;-73
2023/02/11 07:10:42;;;;;;;23.27;12.73;;;7.20;99.90;;;;;;5011106;28;20196;-72
2023/02/11 07:13:07;;;;;;;26.47;12.10;;;7.30;99.90;;;;;;5012292;28;20169;-72
2023/02/11 07:15:33;;;;;;;26.73;13.90;;;7.40;99.90;;;;;;5011882;28;20199;-72
2023/02/11 07:17:58;;;;;;;25.63;12.80;;;7.40;99.90;;;;;;5012015;28;20658;-71
2023/02/11 07:20:24;;;;;;;24.30;12.83;;;7.50;99.90;;;;;;5012313;28;20189;-72
2023/02/11 07:22:50;;;;;;;34.43;13.30;;;7.60;99.90;;;;;;5012332;28;20169;-72
2023/02/11 07:25:15;;;;;;;23.63;13.53;;;7.60;99.90;;;;;;5011937;28;20407;-72
2023/02/11 07:27:41;;;;;;;24.60;12.23;;;7.50;99.90;;;;;;5012212;28;20207;-71
2023/02/11 07:30:07;;;;;;;30.90;14.07;;;7.50;99.90;;;;;;5012132;28;20187;-72
2023/02/11 07:32:33;;;;;;;24.33;12.93;;;7.60;99.90;;;;;;5007034;28;20216;-72
2023/02/11 07:34:58;;;;;;;22.10;12.13;;;7.70;99.90;;;;;;4992239;28;20400;-71
2023/02/11 07:37:24;;;;;;;28.27;14.07;;;7.70;99.90;;;;;;4992702;28;20665;-71
2023/02/11 07:39:49;;;;;;;19.97;11.90;;;7.70;99.90;;;;;;4992447;28;20171;-72
2023/02/11 07:42:15;;;;;;;28.50;14.73;;;7.70;99.90;;;;;;5010691;28;20176;-71
2023/02/11 07:44:40;;;;;;;24.67;14.47;;;7.50;99.90;;;;;;5010308;28;20187;-72
2023/02/11 07:47:06;;;;;;;28.50;15.10;;;7.50;99.90;;;;;;4992498;28;20197;-73
2023/02/11 07:49:31;;;;;;;25.03;13.87;;;7.40;99.90;;;;;;4992425;28;20181;-72
2023/02/11 07:51:57;;;;;;;22.63;13.53;;;7.50;99.90;;;;;;4992263;28;20846;-72
2023/02/11 07:54:22;;;;;;;28.03;15.60;;;7.30;99.90;;;;;;4990629;28;20631;-72
2023/02/11 07:56:48;;;;;;;30.20;14.93;;;7.30;99.90;;;;;;4993643;28;20176;-73
2023/02/11 07:59:13;;;;;;;29.50;13.83;;;7.40;99.90;;;;;;5023589;28;20634;-72
2023/02/11 08:01:39;;;;;;;29.30;16.03;;;7.40;99.90;;;;;;4994352;28;20292;-72
2023/02/11 08:04:04;;;;;;;40.23;19.07;;;7.40;99.90;;;;;;4991060;28;20615;-72
2023/02/11 08:06:31;;;;;;;26.50;14.57;;;7.40;99.90;;;;;;4991998;28;20173;-72
2023/02/11 08:09:02;;;;;;;26.27;13.30;;;7.50;99.90;;;;;;4992241;28;20211;-72
2023/02/11 08:11:28;;;;;;;25.20;14.40;;;7.50;99.90;;;;;;4990847;28;20478;-72
2023/02/11 08:13:55;;;;;;;23.77;14.63;;;7.50;99.90;;;;;;4992253;28;20464;-72
2023/02/11 08:16:22;;;;;;;23.87;14.20;;;7.40;99.90;;;;;;4992000;28;20677;-72
2023/02/11 08:18:48;;;;;;;25.30;14.00;;;7.40;99.90;;;;;;4990836;28;20416;-71
2023/02/11 08:21:14;;;;;;;26.70;12.80;;;7.50;99.90;;;;;;4992057;28;20432;-72
2023/02/11 08:23:41;;;;;;;24.13;13.50;;;7.40;99.90;;;;;;4992125;28;20466;-72
2023/02/11 08:26:09;;;;;;;26.37;14.27;;;7.40;99.90;;;;;;4990510;28;20416;-72
2023/02/11 08:28:40;;;;;;;24.43;14.73;;;7.40;99.90;;;;;;4994454;28;20494;-72
2023/02/11 08:31:07;;;;;;;27.60;13.20;;;7.40;99.90;;;;;;5007004;28;20451;-73
2023/02/11 08:33:33;;;;;;;27.00;14.67;;;7.60;99.90;;;;;;5015264;28;20435;-74
2023/02/11 08:35:59;;;;;;;24.30;13.20;;;7.50;99.90;;;;;;5014952;28;20430;-73
2023/02/11 08:38:25;;;;;;;30.50;13.77;;;7.50;99.90;;;;;;5013832;28;20904;-71
2023/02/11 08:40:50;;;;;;;24.40;14.63;;;7.60;99.90;;;;;;5013509;28;20196;-72
2023/02/11 08:43:16;;;;;;;34.20;14.47;;;7.70;99.90;;;;;;5015154;28;20175;-73
2023/02/11 08:45:41;;;;;;;33.00;13.17;;;7.70;99.90;;;;;;5003619;28;20165;-72
2023/02/11 08:48:07;;;;;;;22.77;13.00;;;7.70;99.90;;;;;;4995502;28;20180;-72
2023/02/11 08:50:33;;;;;;;26.23;12.50;;;7.70;99.90;;;;;;4995256;28;20689;-72
2023/02/11 08:52:58;;;;;;;32.20;17.50;;;7.60;99.90;;;;;;4995311;28;20654;-71
2023/02/11 08:55:24;;;;;;;24.97;13.87;;;7.70;99.90;;;;;;4994921;28;20401;-71
2023/02/11 08:57:50;;;;;;;23.03;12.70;;;7.70;99.90;;;;;;4995360;28;20169;-73
2023/02/11 09:00:16;;;;;;;30.77;13.40;;;7.70;99.90;;;;;;5003829;28;20278;-72
2023/02/11 09:02:41;;;;;;;23.17;13.00;;;7.70;99.90;;;;;;5013747;28;20546;-72
2023/02/11 09:05:07;;;;;;;29.90;14.07;;;7.70;99.90;;;;;;5021898;28;20891;-71
2023/02/11 09:07:33;;;;;;;28.60;13.43;;;7.80;99.90;;;;;;5019165;28;20183;-72
2023/02/11 09:09:58;;;;;;;27.27;14.10;;;7.70;99.90;;;;;;5014445;28;20183;-72
2023/02/11 09:12:24;;;;;;;28.17;13.53;;;7.60;99.90;;;;;;5014497;28;20203;-72
2023/02/11 09:14:49;;;;;;;32.17;14.33;;;7.60;99.90;;;;;;5014275;28;20188;-73
2023/02/11 09:17:14;;;;;;;24.23;15.33;;;7.50;99.90;;;;;;5014457;28;20165;-73
2023/02/11 09:19:40;;;;;;;22.07;11.90;;;7.60;99.90;;;;;;5014204;28;20187;-73
2023/02/11 09:22:05;;;;;;;21.50;13.23;;;7.70;99.90;;;;;;5014291;28;20230;-73
2023/02/11 09:24:31;;;;;;;24.83;12.87;;;7.80;99.90;;;;;;5014025;28;20449;-73
2023/02/11 09:26:56;;;;;;;19.53;12.20;;;8.00;99.90;;;;;;5014329;28;20173;-72
2023/02/11 09:29:22;;;;;;;23.70;12.83;;;7.90;99.90;;;;;;5010433;28;20673;-71
2023/02/11 09:31:48;;;;;;;25.87;12.20;;;7.90;99.90;;;;;;4994534;28;20196;-70
2023/02/11 09:34:14;;;;;;;18.67;12.03;;;7.90;99.90;;;;;;4994301;28;20175;-75
2023/02/11 09:36:41;;;;;;;25.33;13.57;;;7.80;99.90;;;;;;4994509;28;20917;-72
2023/02/11 09:39:11;;;;;;;25.33;11.87;;;7.90;99.90;;;;;;4993879;28;20451;-72
2023/02/11 09:42:07;;;;;;;21.33;12.67;;;8.00;99.90;;;;;;4994440;28;20439;-72
2023/02/11 09:44:35;;;;;;;25.43;14.50;;;8.00;99.90;;;;;;4994007;28;20482;-71
2023/02/11 09:47:04;;;;;;;25.63;12.23;;;8.00;99.90;;;;;;4994337;28;20407;-71
2023/02/11 09:49:50;;;;;;;22.27;12.00;;;8.10;99.90;;;;;;4994187;28;20474;-71
2023/02/11 09:52:38;;;;;;;22.97;12.13;;;8.00;99.90;;;;;;4994160;28;20934;-71
2023/02/11 09:55:23;;;;;;;22.77;12.67;;;8.10;99.90;;;;;;4993732;28;20777;-72
2023/02/11 09:57:49;;;;;;;26.33;13.40;;;8.20;99.90;;;;;;4994106;28;20785;-72
2023/02/11 10:00:20;;;;;;;22.43;12.53;;;8.20;99.90;;;;;;4999733;28;20442;-72
2023/02/11 10:03:13;;;;;;;25.73;12.60;;;8.40;99.90;;;;;;5013459;28;20192;-73
2023/02/11 10:05:41;;;;;;;27.80;12.37;;;8.50;99.90;;;;;;5013131;28;20443;-72
2023/02/11 10:08:18;;;;;;;24.33;13.33;;;8.60;99.90;;;;;;5013309;28;20407;-72
2023/02/11 10:10:52;;;;;;;21.50;11.97;;;8.70;99.90;;;;;;5012991;28;20426;-72
2023/02/11 10:13:53;;;;;;;20.00;11.50;;;8.80;99.90;;;;;;5013439;28;20403;-72
2023/02/11 10:16:21;;;;;;;22.77;12.73;;;8.80;99.90;;;;;;5009134;28;20737;-72
2023/02/11 10:19:18;;;;;;;18.97;12.03;;;8.70;99.90;;;;;;5019999;28;20411;-72
2023/02/11 10:21:45;;;;;;;23.50;12.30;;;8.70;99.90;;;;;;5013102;28;20775;-73
2023/02/11 10:24:14;;;;;;;21.57;11.83;;;8.80;99.90;;;;;;5013173;28;20479;-72
2023/02/11 10:26:40;;;;;;;20.53;11.13;;;9.00;99.90;;;;;;5013122;28;20473;-72
2023/02/11 10:29:33;;;;;;;18.33;12.03;;;9.00;99.90;;;;;;5007505;28;20522;-72
2023/02/11 10:32:02;;;;;;;23.30;12.13;;;9.10;99.90;;;;;;4993101;28;20464;-72
2023/02/11 10:34:28;;;;;;;22.07;11.90;;;9.10;99.90;;;;;;4993020;28;20403;-73
2023/02/11 10:36:53;;;;;;;21.17;12.30;;;9.30;99.90;;;;;;4993373;28;20422;-72
2023/02/11 10:39:22;;;;;;;27.83;13.93;;;9.30;99.90;;;;;;4993224;28;20165;-72
2023/02/11 10:42:08;;;;;;;24.33;15.30;;;9.40;99.90;;;;;;4993188;28;20205;-72
2023/02/11 10:44:37;;;;;;;18.60;12.50;;;9.60;99.90;;;;;;4992891;28;20412;-72
2023/02/11 10:47:11;;;;;;;20.77;13.37;;;9.60;99.90;;;;;;4992935;28;20404;-73
2023/02/11 10:49:43;;;;;;;23.70;11.63;;;9.50;99.90;;;;;;4993009;28;20400;-71
2023/02/11 10:52:11;;;;;;;18.33;12.50;;;9.50;99.90;;;;;;4992195;28;20459;-73
2023/02/11 10:54:37;;;;;;;22.43;13.30;;;9.50;99.90;;;;;;5009366;28;20491;-73
2023/02/11 10:57:03;;;;;;;22.57;12.47;;;9.40;99.90;;;;;;5012560;28;20415;-72
2023/02/11 10:59:32;;;;;;;22.20;12.03;;;9.50;99.90;;;;;;5003823;28;20172;-72
2023/02/11 11:02:03;;;;;;;23.57;14.40;;;9.50;99.90;;;;;;4993026;28;20487;-72
2023/02/11 11:04:41;;;;;;;30.40;13.37;;;9.40;99.90;;;;;;4991474;28;20424;-73
2023/02/11 11:07:23;;;;;;;23.53;12.37;;;9.40;99.90;;;;;;5002539;28;20881;-73
2023/02/11 11:10:02;;;;;;;24.80;13.27;;;9.60;99.90;;;;;;5012307;28;20513;-73
2023/02/11 11:12:30;;;;;;;22.73;13.00;;;9.60;99.90;;;;;;5012390;28;20442;-73
2023/02/11 11:14:59;;;;;;;23.27;13.87;;;9.60;99.90;;;;;;5012128;28;20465;-74
2023/02/11 11:17:28;;;;;;;23.77;11.83;;;9.50;99.90;;;;;;5000783;28;20781;-73
2023/02/11 11:20:21;;;;;;;26.10;13.40;;;9.70;99.90;;;;;;4992661;28;20447;-72
2023/02/11 11:22:49;;;;;;;19.60;12.03;;;9.50;99.90;;;;;;5009546;28;20431;-71
2023/02/11 11:25:29;;;;;;;24.57;13.33;;;9.40;99.90;;;;;;5010692;28;20415;-71
2023/02/11 11:28:00;;;;;;;21.23;13.47;;;9.50;99.90;;;;;;5016036;28;20415;-71
2023/02/11 11:30:37;;;;;;;22.67;12.50;;;9.60;99.90;;;;;;5026127;28;20441;-73
2023/02/11 11:33:03;;;;;;;20.03;12.10;;;9.60;99.90;;;;;;5031819;28;20858;-72
2023/02/11 11:35:31;;;;;;;29.53;11.77;;;9.50;99.90;;;;;;5017057;28;20434;-70
2023/02/11 11:38:03;;;;;;;23.77;12.70;;;9.60;99.90;;;;;;5006741;28;20430;-71
2023/02/11 11:40:34;;;;;;;23.40;13.90;;;9.50;99.90;;;;;;5008742;28;20427;-71
2023/02/11 11:43:11;;;;;;;25.37;14.33;;;9.50;99.90;;;;;;5010338;28;20430;-72
2023/02/11 11:45:36;;;;;;;27.40;13.97;;;9.50;99.90;;;;;;5011839;28;20911;-71
2023/02/11 11:48:33;;;;;;;21.80;12.77;;;9.60;99.90;;;;;;5011519;28;20482;-70
2023/02/11 11:51:08;;;;;;;20.63;12.67;;;9.40;99.90;;;;;;5008201;28;20258;-72
2023/02/11 11:53:44;;;;;;;23.07;13.63;;;9.40;99.90;;;;;;5011955;28;20476;-71
2023/02/11 11:56:36;;;;;;;26.60;13.67;;;9.40;99.90;;;;;;5010944;28;20431;-72
2023/02/11 11:59:10;;;;;;;27.27;13.83;;;9.40;99.90;;;;;;4994221;28;20408;-71
2023/02/11 12:01:36;;;;;;;24.17;14.07;;;9.40;99.90;;;;;;5011022;28;20453;-70
2023/02/11 12:04:41;;;;;;;27.73;15.40;;;9.40;99.90;;;;;;5012382;28;20426;-72
2023/02/11 12:07:28;;;;;;;28.90;12.83;;;9.40;99.90;;;;;;5015740;28;20266;-71
2023/02/11 12:10:17;;;;;;;23.23;13.87;;;9.50;99.90;;;;;;5015551;28;20423;-71
2023/02/11 12:13:02;;;;;;;21.63;12.93;;;9.60;99.90;;;;;;5014220;28;20473;-71
2023/02/11 12:15:36;;;;;;;24.20;13.90;;;9.60;99.90;;;;;;5014508;28;20438;-71
2023/02/11 12:18:21;;;;;;;21.80;12.00;;;9.70;99.90;;;;;;5010874;28;20481;-71
2023/02/11 12:20:58;;;;;;;23.80;13.67;;;9.80;99.90;;;;;;5000780;28;20863;-71
2023/02/11 12:24:01;;;;;;;24.50;14.03;;;9.70;99.90;;;;;;5011662;28;20511;-71
2023/02/11 12:26:41;;;;;;;21.10;12.83;;;9.80;99.90;;;;;;5011642;28;20465;-71
2023/02/11 12:29:26;;;;;;;29.03;14.40;;;9.90;99.90;;;;;;5014408;28;20461;-70
2023/02/11 12:32:16;;;;;;;23.37;13.73;;;10.00;99.90;;;;;;5014467;28;20465;-69
2023/02/11 12:35:23;;;;;;;24.43;12.60;;;10.00;99.90;;;;;;5014855;28;20414;-71
2023/02/11 12:37:58;;;;;;;19.57;11.87;;;10.00;99.90;;;;;;5022685;28;20501;-69
2023/02/11 12:41:02;;;;;;;21.90;12.87;;;10.10;99.90;;;;;;5015173;28;20517;-71
2023/02/11 12:43:37;;;;;;;25.67;12.53;;;10.10;99.90;;;;;;5013986;28;20849;-71
2023/02/11 12:46:32;;;;;;;26.13;13.23;;;10.10;99.90;;;;;;5014646;28;20398;-71
2023/02/11 12:49:16;;;;;;;32.27;15.60;;;10.10;99.90;;;;;;4995878;28;20440;-70
2023/02/11 12:52:01;;;;;;;26.07;13.47;;;10.10;99.90;;;;;;4993889;28;20454;-70
2023/02/11 12:54:40;;;;;;;23.90;13.30;;;10.10;99.90;;;;;;4995096;28;20396;-72
2023/02/11 12:57:10;;;;;;;24.50;13.03;;;10.10;99.90;;;;;;4995212;28;20473;-73
2023/02/11 13:00:01;;;;;;;21.57;12.83;;;10.00;99.90;;;;;;4995265;28;20417;-71
2023/02/11 13:02:34;;;;;;;24.53;13.57;;;9.90;99.90;;;;;;4995328;28;20408;-72